sensor_id;sensor_type;location;lat;lon;timestamp;P1;durP1;ratioP1;P2;durP2;ratioP2
27706;SDS011;36332;51.384;0.040;2022-07-06T00:02:22;3.38;;;1.50;;
27706;SDS011;36332;51.384;0.040;2022-07-06T00:04:50;4.93;;;2.53;;
27706;SDS011;36332;51.384;0.040;2022-07-06T00:07:17;2.13;;;1.08;;
27706;SDS011;36332;51.384;0.040;2022-07-06T00:09:45;3.92;;;1.23;;
27706;SDS011;36332;51.384;0.040;2022-07-06T00:12:12;3.20;;;1.20;;
27706;SDS011;36332;51.384;0.040;2022-07-06T00:14:40;4.38;;;1.27;;
27706;SDS011;36332;51.384;0.040;2022-07-06T00:17:07;4.47;;;1.35;;
27706;SDS011;36332;51.384;0.040;2022-07-06T00:19:35;1.67;;;1.30;;
27706;SDS011;36332;51.384;0.040;2022-07-06T00:22:02;1.95;;;1.27;;
27706;SDS011;36332;51.384;0.040;2022-07-06T00:24:30;2.63;;;1.77;;
27706;SDS011;36332;51.384;0.040;2022-07-06T00:26:57;5.82;;;1.85;;
27706;SDS011;36332;51.384;0.040;2022-07-06T00:29:25;8.25;;;1.58;;
27706;SDS011;36332;51.384;0.040;2022-07-06T00:31:53;5.65;;;1.70;;
27706;SDS011;36332;51.384;0.040;2022-07-06T00:34:21;1.33;;;1.20;;
27706;SDS011;36332;51.384;0.040;2022-07-06T00:36:49;4.40;;;1.90;;
27706;SDS011;36332;51.384;0.040;2022-07-06T00:39:17;6.30;;;1.98;;
27706;SDS011;36332;51.384;0.040;2022-07-06T00:41:46;3.28;;;1.48;;
27706;SDS011;36332;51.384;0.040;2022-07-06T00:44:13;3.20;;;1.15;;
27706;SDS011;36332;51.384;0.040;2022-07-06T00:46:41;3.20;;;1.38;;
27706;SDS011;36332;51.384;0.040;2022-07-06T00:49:08;2.65;;;1.42;;
27706;SDS011;36332;51.384;0.040;2022-07-06T00:51:56;3.00;;;1.60;;
27706;SDS011;36332;51.384;0.040;2022-07-06T00:54:25;7.72;;;1.42;;
27706;SDS011;36332;51.384;0.040;2022-07-06T00:56:54;3.22;;;1.58;;
27706;SDS011;36332;51.384;0.040;2022-07-06T00:59:23;5.88;;;1.75;;
27706;SDS011;36332;51.384;0.040;2022-07-06T01:01:51;5.22;;;1.60;;
27706;SDS011;36332;51.384;0.040;2022-07-06T01:04:19;5.03;;;2.00;;
27706;SDS011;36332;51.384;0.040;2022-07-06T01:06:47;4.70;;;1.80;;
27706;SDS011;36332;51.384;0.040;2022-07-06T01:09:14;3.55;;;1.52;;
27706;SDS011;36332;51.384;0.040;2022-07-06T01:11:43;3.55;;;1.42;;
27706;SDS011;36332;51.384;0.040;2022-07-06T01:14:12;2.72;;;1.33;;
27706;SDS011;36332;51.384;0.040;2022-07-06T01:16:41;3.38;;;1.52;;
27706;SDS011;36332;51.384;0.040;2022-07-06T01:19:08;10.02;;;1.48;;
27706;SDS011;36332;51.384;0.040;2022-07-06T01:21:39;4.95;;;1.70;;
27706;SDS011;36332;51.384;0.040;2022-07-06T01:24:06;2.30;;;1.52;;
27706;SDS011;36332;51.384;0.040;2022-07-06T01:26:34;7.35;;;1.75;;
27706;SDS011;36332;51.384;0.040;2022-07-06T01:29:02;6.57;;;1.33;;
27706;SDS011;36332;51.384;0.040;2022-07-06T01:31:30;7.25;;;1.60;;
27706;SDS011;36332;51.384;0.040;2022-07-06T01:33:58;12.60;;;1.92;;
27706;SDS011;36332;51.384;0.040;2022-07-06T01:36:26;8.18;;;1.88;;
27706;SDS011;36332;51.384;0.040;2022-07-06T01:38:55;7.40;;;1.80;;
27706;SDS011;36332;51.384;0.040;2022-07-06T01:41:26;4.93;;;1.60;;
27706;SDS011;36332;51.384;0.040;2022-07-06T01:43:53;11.20;;;2.13;;
27706;SDS011;36332;51.384;0.040;2022-07-06T01:46:21;11.10;;;2.00;;
27706;SDS011;36332;51.384;0.040;2022-07-06T01:48:49;6.70;;;1.60;;
27706;SDS011;36332;51.384;0.040;2022-07-06T01:51:17;7.03;;;1.80;;
27706;SDS011;36332;51.384;0.040;2022-07-06T01:53:46;5.13;;;1.88;;
27706;SDS011;36332;51.384;0.040;2022-07-06T01:56:16;6.13;;;2.00;;
27706;SDS011;36332;51.384;0.040;2022-07-06T01:58:50;7.38;;;2.03;;
27706;SDS011;36332;51.384;0.040;2022-07-06T02:01:18;4.45;;;1.63;;
27706;SDS011;36332;51.384;0.040;2022-07-06T02:03:47;5.00;;;1.77;;
27706;SDS011;36332;51.384;0.040;2022-07-06T02:06:15;3.00;;;1.58;;
27706;SDS011;36332;51.384;0.040;2022-07-06T02:08:46;6.57;;;2.80;;
27706;SDS011;36332;51.384;0.040;2022-07-06T02:11:14;5.95;;;1.83;;
27706;SDS011;36332;51.384;0.040;2022-07-06T02:13:43;4.00;;;2.22;;
27706;SDS011;36332;51.384;0.040;2022-07-06T02:16:11;7.32;;;2.03;;
27706;SDS011;36332;51.384;0.040;2022-07-06T02:18:40;3.13;;;1.55;;
27706;SDS011;36332;51.384;0.040;2022-07-06T02:21:08;4.05;;;1.73;;
27706;SDS011;36332;51.384;0.040;2022-07-06T02:23:35;8.68;;;1.77;;
27706;SDS011;36332;51.384;0.040;2022-07-06T02:26:03;7.43;;;1.92;;
27706;SDS011;36332;51.384;0.040;2022-07-06T02:28:31;6.22;;;1.90;;
27706;SDS011;36332;51.384;0.040;2022-07-06T02:30:59;4.68;;;1.80;;
27706;SDS011;36332;51.384;0.040;2022-07-06T02:33:28;5.03;;;1.45;;
27706;SDS011;36332;51.384;0.040;2022-07-06T02:35:56;7.20;;;2.10;;
27706;SDS011;36332;51.384;0.040;2022-07-06T02:38:23;8.25;;;1.52;;
27706;SDS011;36332;51.384;0.040;2022-07-06T02:40:52;5.43;;;2.20;;
27706;SDS011;36332;51.384;0.040;2022-07-06T02:43:20;8.02;;;1.70;;
27706;SDS011;36332;51.384;0.040;2022-07-06T02:45:49;9.93;;;2.95;;
27706;SDS011;36332;51.384;0.040;2022-07-06T02:48:18;7.93;;;2.20;;
27706;SDS011;36332;51.384;0.040;2022-07-06T02:50:50;4.43;;;2.38;;
27706;SDS011;36332;51.384;0.040;2022-07-06T02:53:18;4.38;;;2.20;;
27706;SDS011;36332;51.384;0.040;2022-07-06T02:55:49;8.43;;;2.20;;
27706;SDS011;36332;51.384;0.040;2022-07-06T02:58:16;5.03;;;1.65;;
27706;SDS011;36332;51.384;0.040;2022-07-06T03:00:44;8.55;;;3.25;;
27706;SDS011;36332;51.384;0.040;2022-07-06T03:03:12;8.98;;;2.63;;
27706;SDS011;36332;51.384;0.040;2022-07-06T03:05:40;4.03;;;1.75;;
27706;SDS011;36332;51.384;0.040;2022-07-06T03:08:08;4.43;;;1.83;;
27706;SDS011;36332;51.384;0.040;2022-07-06T03:10:36;8.25;;;2.58;;
27706;SDS011;36332;51.384;0.040;2022-07-06T03:13:04;5.30;;;1.90;;
27706;SDS011;36332;51.384;0.040;2022-07-06T03:15:31;6.95;;;2.28;;
27706;SDS011;36332;51.384;0.040;2022-07-06T03:17:59;7.32;;;1.80;;
27706;SDS011;36332;51.384;0.040;2022-07-06T03:20:27;4.28;;;2.60;;
27706;SDS011;36332;51.384;0.040;2022-07-06T03:22:55;5.93;;;2.08;;
27706;SDS011;36332;51.384;0.040;2022-07-06T03:25:23;8.23;;;2.38;;
27706;SDS011;36332;51.384;0.040;2022-07-06T03:27:52;4.80;;;2.00;;
27706;SDS011;36332;51.384;0.040;2022-07-06T03:30:20;7.55;;;2.17;;
27706;SDS011;36332;51.384;0.040;2022-07-06T03:32:53;4.82;;;1.88;;
27706;SDS011;36332;51.384;0.040;2022-07-06T03:35:21;9.15;;;2.78;;
27706;SDS011;36332;51.384;0.040;2022-07-06T03:37:51;4.57;;;2.05;;
27706;SDS011;36332;51.384;0.040;2022-07-06T03:40:20;9.75;;;2.30;;
27706;SDS011;36332;51.384;0.040;2022-07-06T03:42:50;8.13;;;2.22;;
27706;SDS011;36332;51.384;0.040;2022-07-06T03:45:18;11.00;;;3.15;;
27706;SDS011;36332;51.384;0.040;2022-07-06T03:47:46;3.90;;;1.95;;
27706;SDS011;36332;51.384;0.040;2022-07-06T03:50:14;6.00;;;2.10;;
27706;SDS011;36332;51.384;0.040;2022-07-06T03:52:42;5.40;;;1.70;;
27706;SDS011;36332;51.384;0.040;2022-07-06T03:55:11;7.40;;;2.92;;
27706;SDS011;36332;51.384;0.040;2022-07-06T03:57:44;14.00;;;3.08;;
27706;SDS011;36332;51.384;0.040;2022-07-06T04:00:15;13.45;;;2.92;;
27706;SDS011;36332;51.384;0.040;2022-07-06T04:02:50;7.65;;;1.90;;
27706;SDS011;36332;51.384;0.040;2022-07-06T04:05:21;5.45;;;2.30;;
27706;SDS011;36332;51.384;0.040;2022-07-06T04:07:52;5.22;;;1.75;;
27706;SDS011;36332;51.384;0.040;2022-07-06T04:10:23;5.07;;;2.00;;
27706;SDS011;36332;51.384;0.040;2022-07-06T04:12:51;3.38;;;2.00;;
27706;SDS011;36332;51.384;0.040;2022-07-06T04:15:19;6.95;;;2.22;;
27706;SDS011;36332;51.384;0.040;2022-07-06T04:17:47;7.75;;;2.08;;
27706;SDS011;36332;51.384;0.040;2022-07-06T04:20:28;6.20;;;2.17;;
27706;SDS011;36332;51.384;0.040;2022-07-06T04:22:57;3.28;;;1.85;;
27706;SDS011;36332;51.384;0.040;2022-07-06T04:25:26;12.25;;;2.25;;
27706;SDS011;36332;51.384;0.040;2022-07-06T04:27:57;5.45;;;2.38;;
27706;SDS011;36332;51.384;0.040;2022-07-06T04:30:26;5.68;;;2.03;;
27706;SDS011;36332;51.384;0.040;2022-07-06T04:32:54;6.00;;;2.10;;
27706;SDS011;36332;51.384;0.040;2022-07-06T04:35:25;8.00;;;2.35;;
27706;SDS011;36332;51.384;0.040;2022-07-06T04:37:54;6.22;;;1.83;;
27706;SDS011;36332;51.384;0.040;2022-07-06T04:40:22;11.23;;;2.65;;
27706;SDS011;36332;51.384;0.040;2022-07-06T04:42:54;7.13;;;2.40;;
27706;SDS011;36332;51.384;0.040;2022-07-06T04:45:23;4.78;;;2.25;;
27706;SDS011;36332;51.384;0.040;2022-07-06T04:47:51;10.23;;;2.63;;
27706;SDS011;36332;51.384;0.040;2022-07-06T04:50:19;4.20;;;2.38;;
27706;SDS011;36332;51.384;0.040;2022-07-06T04:52:47;8.88;;;1.85;;
27706;SDS011;36332;51.384;0.040;2022-07-06T04:55:15;5.97;;;2.80;;
27706;SDS011;36332;51.384;0.040;2022-07-06T04:57:42;8.57;;;2.45;;
27706;SDS011;36332;51.384;0.040;2022-07-06T05:00:12;5.95;;;1.98;;
27706;SDS011;36332;51.384;0.040;2022-07-06T05:02:41;6.88;;;2.85;;
27706;SDS011;36332;51.384;0.040;2022-07-06T05:05:10;11.30;;;2.17;;
27706;SDS011;36332;51.384;0.040;2022-07-06T05:07:38;6.65;;;2.35;;
27706;SDS011;36332;51.384;0.040;2022-07-06T05:10:08;10.63;;;2.85;;
27706;SDS011;36332;51.384;0.040;2022-07-06T05:12:38;5.65;;;2.08;;
27706;SDS011;36332;51.384;0.040;2022-07-06T05:15:07;6.47;;;2.55;;
27706;SDS011;36332;51.384;0.040;2022-07-06T05:17:35;4.85;;;2.33;;
27706;SDS011;36332;51.384;0.040;2022-07-06T05:20:04;6.57;;;2.47;;
27706;SDS011;36332;51.384;0.040;2022-07-06T05:22:36;10.10;;;2.70;;
27706;SDS011;36332;51.384;0.040;2022-07-06T05:25:11;7.82;;;2.33;;
27706;SDS011;36332;51.384;0.040;2022-07-06T05:27:40;10.27;;;2.17;;
27706;SDS011;36332;51.384;0.040;2022-07-06T05:30:08;10.70;;;2.13;;
27706;SDS011;36332;51.384;0.040;2022-07-06T05:32:37;8.02;;;3.03;;
27706;SDS011;36332;51.384;0.040;2022-07-06T05:35:05;11.13;;;2.20;;
27706;SDS011;36332;51.384;0.040;2022-07-06T05:37:54;7.00;;;2.25;;
27706;SDS011;36332;51.384;0.040;2022-07-06T05:40:22;9.32;;;2.20;;
27706;SDS011;36332;51.384;0.040;2022-07-06T05:42:52;7.32;;;2.28;;
27706;SDS011;36332;51.384;0.040;2022-07-06T05:45:20;8.63;;;2.17;;
27706;SDS011;36332;51.384;0.040;2022-07-06T05:47:51;10.82;;;2.90;;
27706;SDS011;36332;51.384;0.040;2022-07-06T05:50:37;7.90;;;2.30;;
27706;SDS011;36332;51.384;0.040;2022-07-06T05:53:06;10.65;;;2.33;;
27706;SDS011;36332;51.384;0.040;2022-07-06T05:55:46;6.68;;;2.05;;
27706;SDS011;36332;51.384;0.040;2022-07-06T05:58:15;8.20;;;2.90;;
27706;SDS011;36332;51.384;0.040;2022-07-06T06:00:45;8.00;;;2.20;;
27706;SDS011;36332;51.384;0.040;2022-07-06T06:03:17;8.88;;;2.35;;
27706;SDS011;36332;51.384;0.040;2022-07-06T06:05:47;7.85;;;2.83;;
27706;SDS011;36332;51.384;0.040;2022-07-06T06:08:17;6.00;;;2.22;;
27706;SDS011;36332;51.384;0.040;2022-07-06T06:10:45;10.48;;;2.05;;
27706;SDS011;36332;51.384;0.040;2022-07-06T06:13:16;7.38;;;2.95;;
27706;SDS011;36332;51.384;0.040;2022-07-06T06:15:44;8.88;;;3.38;;
27706;SDS011;36332;51.384;0.040;2022-07-06T06:18:13;7.72;;;1.98;;
27706;SDS011;36332;51.384;0.040;2022-07-06T06:20:44;7.53;;;2.30;;
27706;SDS011;36332;51.384;0.040;2022-07-06T06:23:12;11.25;;;2.17;;
27706;SDS011;36332;51.384;0.040;2022-07-06T06:25:40;14.95;;;3.03;;
27706;SDS011;36332;51.384;0.040;2022-07-06T06:28:09;9.35;;;2.60;;
27706;SDS011;36332;51.384;0.040;2022-07-06T06:30:38;7.85;;;2.40;;
27706;SDS011;36332;51.384;0.040;2022-07-06T06:35:44;7.57;;;2.60;;
27706;SDS011;36332;51.384;0.040;2022-07-06T06:38:16;9.97;;;2.57;;
27706;SDS011;36332;51.384;0.040;2022-07-06T06:40:44;8.20;;;2.28;;
27706;SDS011;36332;51.384;0.040;2022-07-06T06:43:12;11.93;;;2.28;;
27706;SDS011;36332;51.384;0.040;2022-07-06T06:45:51;12.75;;;2.58;;
27706;SDS011;36332;51.384;0.040;2022-07-06T06:48:19;6.47;;;2.47;;
27706;SDS011;36332;51.384;0.040;2022-07-06T06:50:46;7.40;;;2.40;;
27706;SDS011;36332;51.384;0.040;2022-07-06T06:53:14;9.40;;;2.90;;
27706;SDS011;36332;51.384;0.040;2022-07-06T06:55:41;6.97;;;2.70;;
27706;SDS011;36332;51.384;0.040;2022-07-06T06:58:09;10.48;;;2.55;;
27706;SDS011;36332;51.384;0.040;2022-07-06T07:00:37;9.02;;;2.33;;
27706;SDS011;36332;51.384;0.040;2022-07-06T07:03:04;4.80;;;2.30;;
27706;SDS011;36332;51.384;0.040;2022-07-06T07:05:32;7.00;;;2.30;;
27706;SDS011;36332;51.384;0.040;2022-07-06T07:07:59;6.82;;;1.90;;
27706;SDS011;36332;51.384;0.040;2022-07-06T07:10:31;9.57;;;2.33;;
27706;SDS011;36332;51.384;0.040;2022-07-06T07:13:00;10.95;;;2.42;;
27706;SDS011;36332;51.384;0.040;2022-07-06T07:15:27;10.23;;;1.95;;
27706;SDS011;36332;51.384;0.040;2022-07-06T07:17:55;4.60;;;2.20;;
27706;SDS011;36332;51.384;0.040;2022-07-06T07:20:23;6.22;;;2.05;;
27706;SDS011;36332;51.384;0.040;2022-07-06T07:22:52;8.57;;;2.30;;
27706;SDS011;36332;51.384;0.040;2022-07-06T07:25:19;8.48;;;2.67;;
27706;SDS011;36332;51.384;0.040;2022-07-06T07:27:47;7.18;;;2.60;;
27706;SDS011;36332;51.384;0.040;2022-07-06T07:30:14;6.13;;;1.95;;
27706;SDS011;36332;51.384;0.040;2022-07-06T07:32:42;20.27;;;3.00;;
27706;SDS011;36332;51.384;0.040;2022-07-06T07:35:09;7.25;;;2.40;;
27706;SDS011;36332;51.384;0.040;2022-07-06T07:37:37;12.50;;;2.55;;
27706;SDS011;36332;51.384;0.040;2022-07-06T07:40:05;5.40;;;1.92;;
27706;SDS011;36332;51.384;0.040;2022-07-06T07:42:33;6.32;;;2.03;;
27706;SDS011;36332;51.384;0.040;2022-07-06T07:45:00;4.90;;;2.25;;
27706;SDS011;36332;51.384;0.040;2022-07-06T07:47:28;4.60;;;1.80;;
27706;SDS011;36332;51.384;0.040;2022-07-06T07:49:55;16.35;;;3.00;;
27706;SDS011;36332;51.384;0.040;2022-07-06T07:52:23;5.35;;;1.80;;
27706;SDS011;36332;51.384;0.040;2022-07-06T07:54:51;5.22;;;2.42;;
27706;SDS011;36332;51.384;0.040;2022-07-06T07:57:38;7.45;;;2.20;;
27706;SDS011;36332;51.384;0.040;2022-07-06T08:00:06;6.53;;;2.90;;
27706;SDS011;36332;51.384;0.040;2022-07-06T08:02:38;8.45;;;2.03;;
27706;SDS011;36332;51.384;0.040;2022-07-06T08:05:06;4.20;;;1.83;;
27706;SDS011;36332;51.384;0.040;2022-07-06T08:07:34;4.32;;;1.77;;
27706;SDS011;36332;51.384;0.040;2022-07-06T08:10:01;6.47;;;1.77;;
27706;SDS011;36332;51.384;0.040;2022-07-06T08:12:29;4.97;;;1.95;;
27706;SDS011;36332;51.384;0.040;2022-07-06T08:14:57;5.15;;;1.90;;
27706;SDS011;36332;51.384;0.040;2022-07-06T08:17:26;4.45;;;1.88;;
27706;SDS011;36332;51.384;0.040;2022-07-06T08:19:54;2.30;;;1.85;;
27706;SDS011;36332;51.384;0.040;2022-07-06T08:22:22;8.10;;;2.03;;
27706;SDS011;36332;51.384;0.040;2022-07-06T08:24:49;4.50;;;1.85;;
27706;SDS011;36332;51.384;0.040;2022-07-06T08:27:17;5.82;;;2.22;;
27706;SDS011;36332;51.384;0.040;2022-07-06T08:29:45;6.70;;;2.00;;
27706;SDS011;36332;51.384;0.040;2022-07-06T08:32:15;6.57;;;2.22;;
27706;SDS011;36332;51.384;0.040;2022-07-06T08:35:04;5.18;;;2.38;;
27706;SDS011;36332;51.384;0.040;2022-07-06T08:37:31;4.75;;;2.03;;
27706;SDS011;36332;51.384;0.040;2022-07-06T08:39:59;6.20;;;2.28;;
27706;SDS011;36332;51.384;0.040;2022-07-06T08:42:30;4.45;;;1.92;;
27706;SDS011;36332;51.384;0.040;2022-07-06T08:45:03;4.55;;;1.80;;
27706;SDS011;36332;51.384;0.040;2022-07-06T08:47:34;5.68;;;1.90;;
27706;SDS011;36332;51.384;0.040;2022-07-06T08:50:03;5.93;;;1.92;;
27706;SDS011;36332;51.384;0.040;2022-07-06T08:52:32;4.35;;;2.50;;
27706;SDS011;36332;51.384;0.040;2022-07-06T08:55:00;2.70;;;1.80;;
27706;SDS011;36332;51.384;0.040;2022-07-06T08:57:29;4.70;;;1.60;;
27706;SDS011;36332;51.384;0.040;2022-07-06T08:59:57;3.40;;;1.80;;
27706;SDS011;36332;51.384;0.040;2022-07-06T09:02:25;4.38;;;2.25;;
27706;SDS011;36332;51.384;0.040;2022-07-06T09:04:56;4.80;;;2.00;;
27706;SDS011;36332;51.384;0.040;2022-07-06T09:07:26;4.60;;;1.42;;
27706;SDS011;36332;51.384;0.040;2022-07-06T09:10:20;9.10;;;2.00;;
27706;SDS011;36332;51.384;0.040;2022-07-06T09:12:52;6.95;;;2.08;;
27706;SDS011;36332;51.384;0.040;2022-07-06T09:15:23;5.43;;;1.80;;
27706;SDS011;36332;51.384;0.040;2022-07-06T09:17:55;2.92;;;1.83;;
27706;SDS011;36332;51.384;0.040;2022-07-06T09:20:24;6.43;;;1.98;;
27706;SDS011;36332;51.384;0.040;2022-07-06T09:22:59;4.85;;;1.83;;
27706;SDS011;36332;51.384;0.040;2022-07-06T09:25:27;4.55;;;1.23;;
27706;SDS011;36332;51.384;0.040;2022-07-06T09:27:56;3.40;;;1.98;;
27706;SDS011;36332;51.384;0.040;2022-07-06T09:30:26;2.95;;;1.38;;
27706;SDS011;36332;51.384;0.040;2022-07-06T09:32:55;3.20;;;1.20;;
27706;SDS011;36332;51.384;0.040;2022-07-06T09:35:26;2.42;;;1.30;;
27706;SDS011;36332;51.384;0.040;2022-07-06T09:40:36;1.70;;;1.20;;
27706;SDS011;36332;51.384;0.040;2022-07-06T09:43:13;2.10;;;1.30;;
27706;SDS011;36332;51.384;0.040;2022-07-06T09:45:49;2.97;;;0.95;;
27706;SDS011;36332;51.384;0.040;2022-07-06T09:50:51;4.50;;;1.23;;
27706;SDS011;36332;51.384;0.040;2022-07-06T09:53:24;7.40;;;1.30;;
27706;SDS011;36332;51.384;0.040;2022-07-06T09:55:54;1.17;;;1.08;;
27706;SDS011;36332;51.384;0.040;2022-07-06T09:58:22;6.68;;;1.60;;
27706;SDS011;36332;51.384;0.040;2022-07-06T10:01:09;2.75;;;1.35;;
27706;SDS011;36332;51.384;0.040;2022-07-06T10:03:37;4.40;;;1.48;;
27706;SDS011;36332;51.384;0.040;2022-07-06T10:06:05;5.63;;;1.33;;
27706;SDS011;36332;51.384;0.040;2022-07-06T10:08:34;2.55;;;1.00;;
27706;SDS011;36332;51.384;0.040;2022-07-06T10:11:03;1.13;;;1.00;;
27706;SDS011;36332;51.384;0.040;2022-07-06T10:13:30;2.42;;;0.85;;
27706;SDS011;36332;51.384;0.040;2022-07-06T10:16:00;1.75;;;1.55;;
27706;SDS011;36332;51.384;0.040;2022-07-06T10:18:28;1.83;;;1.25;;
27706;SDS011;36332;51.384;0.040;2022-07-06T10:20:57;2.65;;;1.70;;
27706;SDS011;36332;51.384;0.040;2022-07-06T10:23:25;3.45;;;1.50;;
27706;SDS011;36332;51.384;0.040;2022-07-06T10:25:54;5.75;;;1.27;;
27706;SDS011;36332;51.384;0.040;2022-07-06T10:28:24;4.50;;;1.40;;
27706;SDS011;36332;51.384;0.040;2022-07-06T10:30:53;2.00;;;1.05;;
27706;SDS011;36332;51.384;0.040;2022-07-06T10:33:21;4.90;;;1.08;;
27706;SDS011;36332;51.384;0.040;2022-07-06T10:35:55;6.78;;;1.27;;
27706;SDS011;36332;51.384;0.040;2022-07-06T10:38:30;5.03;;;2.30;;
27706;SDS011;36332;51.384;0.040;2022-07-06T10:41:02;1.30;;;0.88;;
27706;SDS011;36332;51.384;0.040;2022-07-06T10:43:32;3.33;;;1.30;;
27706;SDS011;36332;51.384;0.040;2022-07-06T10:46:07;2.50;;;1.17;;
27706;SDS011;36332;51.384;0.040;2022-07-06T10:48:40;1.92;;;1.00;;
27706;SDS011;36332;51.384;0.040;2022-07-06T10:51:25;2.10;;;1.10;;
27706;SDS011;36332;51.384;0.040;2022-07-06T10:54:04;31.77;;;7.40;;
27706;SDS011;36332;51.384;0.040;2022-07-06T10:56:32;2.17;;;1.10;;
27706;SDS011;36332;51.384;0.040;2022-07-06T10:59:09;2.25;;;1.00;;
27706;SDS011;36332;51.384;0.040;2022-07-06T11:01:38;2.10;;;1.05;;
27706;SDS011;36332;51.384;0.040;2022-07-06T11:04:13;3.45;;;0.90;;
27706;SDS011;36332;51.384;0.040;2022-07-06T11:06:45;3.53;;;1.10;;
27706;SDS011;36332;51.384;0.040;2022-07-06T11:09:13;4.95;;;1.15;;
27706;SDS011;36332;51.384;0.040;2022-07-06T11:11:42;1.05;;;0.80;;
27706;SDS011;36332;51.384;0.040;2022-07-06T11:14:14;4.57;;;0.88;;
27706;SDS011;36332;51.384;0.040;2022-07-06T11:19:16;5.97;;;1.13;;
27706;SDS011;36332;51.384;0.040;2022-07-06T11:21:44;2.28;;;0.70;;
27706;SDS011;36332;51.384;0.040;2022-07-06T11:26:47;1.60;;;1.02;;
27706;SDS011;36332;51.384;0.040;2022-07-06T11:29:16;3.45;;;1.00;;
27706;SDS011;36332;51.384;0.040;2022-07-06T11:31:48;1.08;;;0.95;;
27706;SDS011;36332;51.384;0.040;2022-07-06T11:34:20;1.58;;;0.88;;
27706;SDS011;36332;51.384;0.040;2022-07-06T11:36:59;2.78;;;0.77;;
27706;SDS011;36332;51.384;0.040;2022-07-06T11:39:28;3.55;;;1.02;;
27706;SDS011;36332;51.384;0.040;2022-07-06T11:41:56;1.23;;;0.98;;
27706;SDS011;36332;51.384;0.040;2022-07-06T11:44:25;1.80;;;0.85;;
27706;SDS011;36332;51.384;0.040;2022-07-06T11:46:53;2.83;;;0.98;;
27706;SDS011;36332;51.384;0.040;2022-07-06T11:49:23;2.65;;;1.05;;
27706;SDS011;36332;51.384;0.040;2022-07-06T11:51:50;2.22;;;0.90;;
27706;SDS011;36332;51.384;0.040;2022-07-06T11:54:19;0.95;;;0.85;;
27706;SDS011;36332;51.384;0.040;2022-07-06T11:59:28;4.53;;;0.80;;
27706;SDS011;36332;51.384;0.040;2022-07-06T12:04:26;0.90;;;0.80;;
27706;SDS011;36332;51.384;0.040;2022-07-06T12:06:55;7.20;;;1.02;;
27706;SDS011;36332;51.384;0.040;2022-07-06T12:09:26;4.65;;;0.77;;
27706;SDS011;36332;51.384;0.040;2022-07-06T12:11:57;5.60;;;0.90;;
27706;SDS011;36332;51.384;0.040;2022-07-06T12:14:30;5.78;;;1.58;;
27706;SDS011;36332;51.384;0.040;2022-07-06T12:17:03;3.10;;;1.00;;
27706;SDS011;36332;51.384;0.040;2022-07-06T12:19:35;1.40;;;0.70;;
27706;SDS011;36332;51.384;0.040;2022-07-06T12:22:03;1.83;;;0.57;;
27706;SDS011;36332;51.384;0.040;2022-07-06T12:24:33;1.50;;;0.70;;
27706;SDS011;36332;51.384;0.040;2022-07-06T12:27:15;1.00;;;0.88;;
27706;SDS011;36332;51.384;0.040;2022-07-06T12:29:44;1.95;;;0.90;;
27706;SDS011;36332;51.384;0.040;2022-07-06T12:32:13;2.83;;;0.77;;
27706;SDS011;36332;51.384;0.040;2022-07-06T12:34:44;1.30;;;0.70;;
27706;SDS011;36332;51.384;0.040;2022-07-06T12:37:12;3.08;;;0.52;;
27706;SDS011;36332;51.384;0.040;2022-07-06T12:39:44;1.58;;;0.73;;
27706;SDS011;36332;51.384;0.040;2022-07-06T12:42:13;3.58;;;1.00;;
27706;SDS011;36332;51.384;0.040;2022-07-06T12:44:48;1.42;;;0.70;;
27706;SDS011;36332;51.384;0.040;2022-07-06T12:47:20;1.75;;;0.77;;
27706;SDS011;36332;51.384;0.040;2022-07-06T12:50:08;6.45;;;0.85;;
27706;SDS011;36332;51.384;0.040;2022-07-06T12:52:38;4.45;;;0.88;;
27706;SDS011;36332;51.384;0.040;2022-07-06T12:55:06;1.85;;;0.75;;
27706;SDS011;36332;51.384;0.040;2022-07-06T12:57:42;2.42;;;0.77;;
27706;SDS011;36332;51.384;0.040;2022-07-06T13:00:11;1.27;;;0.60;;
27706;SDS011;36332;51.384;0.040;2022-07-06T13:02:39;3.83;;;1.23;;
27706;SDS011;36332;51.384;0.040;2022-07-06T13:05:26;1.45;;;1.00;;
27706;SDS011;36332;51.384;0.040;2022-07-06T13:07:55;1.90;;;0.60;;
27706;SDS011;36332;51.384;0.040;2022-07-06T13:10:24;4.13;;;0.90;;
27706;SDS011;36332;51.384;0.040;2022-07-06T13:12:52;4.03;;;0.60;;
27706;SDS011;36332;51.384;0.040;2022-07-06T13:15:20;3.67;;;0.75;;
27706;SDS011;36332;51.384;0.040;2022-07-06T13:17:47;1.75;;;0.70;;
27706;SDS011;36332;51.384;0.040;2022-07-06T13:20:15;0.82;;;0.68;;
27706;SDS011;36332;51.384;0.040;2022-07-06T13:22:44;0.63;;;0.52;;
27706;SDS011;36332;51.384;0.040;2022-07-06T13:25:12;0.95;;;0.70;;
27706;SDS011;36332;51.384;0.040;2022-07-06T13:27:40;0.70;;;0.70;;
27706;SDS011;36332;51.384;0.040;2022-07-06T13:30:08;0.90;;;0.73;;
27706;SDS011;36332;51.384;0.040;2022-07-06T13:32:37;4.53;;;0.70;;
27706;SDS011;36332;51.384;0.040;2022-07-06T13:35:06;3.20;;;0.80;;
27706;SDS011;36332;51.384;0.040;2022-07-06T13:37:34;2.40;;;0.80;;
27706;SDS011;36332;51.384;0.040;2022-07-06T13:40:02;3.47;;;0.93;;
27706;SDS011;36332;51.384;0.040;2022-07-06T13:42:30;1.52;;;0.57;;
27706;SDS011;36332;51.384;0.040;2022-07-06T13:44:57;2.55;;;1.17;;
27706;SDS011;36332;51.384;0.040;2022-07-06T13:47:25;0.98;;;0.70;;
27706;SDS011;36332;51.384;0.040;2022-07-06T13:49:52;1.05;;;0.52;;
27706;SDS011;36332;51.384;0.040;2022-07-06T13:52:20;3.90;;;0.60;;
27706;SDS011;36332;51.384;0.040;2022-07-06T13:54:47;5.00;;;0.80;;
27706;SDS011;36332;51.384;0.040;2022-07-06T13:57:15;2.58;;;0.95;;
27706;SDS011;36332;51.384;0.040;2022-07-06T13:59:43;5.30;;;0.80;;
27706;SDS011;36332;51.384;0.040;2022-07-06T14:02:10;2.00;;;0.60;;
27706;SDS011;36332;51.384;0.040;2022-07-06T14:04:38;1.27;;;0.50;;
27706;SDS011;36332;51.384;0.040;2022-07-06T14:07:06;2.05;;;1.00;;
27706;SDS011;36332;51.384;0.040;2022-07-06T14:09:34;5.00;;;0.90;;
27706;SDS011;36332;51.384;0.040;2022-07-06T14:12:01;4.15;;;0.75;;
27706;SDS011;36332;51.384;0.040;2022-07-06T14:14:30;9.98;;;1.02;;
27706;SDS011;36332;51.384;0.040;2022-07-06T14:16:57;0.65;;;0.65;;
27706;SDS011;36332;51.384;0.040;2022-07-06T14:19:25;2.40;;;0.70;;
27706;SDS011;36332;51.384;0.040;2022-07-06T14:21:53;1.55;;;0.80;;
27706;SDS011;36332;51.384;0.040;2022-07-06T14:24:20;2.05;;;0.63;;
27706;SDS011;36332;51.384;0.040;2022-07-06T14:26:48;2.38;;;0.73;;
27706;SDS011;36332;51.384;0.040;2022-07-06T14:29:15;4.13;;;0.70;;
27706;SDS011;36332;51.384;0.040;2022-07-06T14:31:43;3.80;;;0.80;;
27706;SDS011;36332;51.384;0.040;2022-07-06T14:34:10;1.13;;;0.70;;
27706;SDS011;36332;51.384;0.040;2022-07-06T14:36:38;3.08;;;0.90;;
27706;SDS011;36332;51.384;0.040;2022-07-06T14:39:06;1.52;;;0.60;;
27706;SDS011;36332;51.384;0.040;2022-07-06T14:41:33;2.00;;;0.80;;
27706;SDS011;36332;51.384;0.040;2022-07-06T14:44:02;1.15;;;0.93;;
27706;SDS011;36332;51.384;0.040;2022-07-06T14:46:30;1.38;;;0.68;;
27706;SDS011;36332;51.384;0.040;2022-07-06T14:48:58;0.70;;;0.60;;
27706;SDS011;36332;51.384;0.040;2022-07-06T14:51:26;2.53;;;0.80;;
27706;SDS011;36332;51.384;0.040;2022-07-06T14:53:54;2.72;;;0.90;;
27706;SDS011;36332;51.384;0.040;2022-07-06T14:56:21;2.85;;;0.70;;
27706;SDS011;36332;51.384;0.040;2022-07-06T14:58:49;1.30;;;0.90;;
27706;SDS011;36332;51.384;0.040;2022-07-06T15:01:39;0.85;;;0.57;;
27706;SDS011;36332;51.384;0.040;2022-07-06T15:04:06;1.33;;;1.10;;
27706;SDS011;36332;51.384;0.040;2022-07-06T15:06:34;0.68;;;0.65;;
27706;SDS011;36332;51.384;0.040;2022-07-06T15:09:20;3.80;;;2.00;;
27706;SDS011;36332;51.384;0.040;2022-07-06T15:11:48;2.50;;;0.90;;
27706;SDS011;36332;51.384;0.040;2022-07-06T15:14:15;2.80;;;1.20;;
27706;SDS011;36332;51.384;0.040;2022-07-06T15:16:44;1.85;;;1.10;;
27706;SDS011;36332;51.384;0.040;2022-07-06T15:19:13;2.78;;;1.00;;